HVK weather

Hólmavík Airport
Hólmavík, Westfjords, Iceland

Public forecast

Using degrees Celsius for public forecast. Weather courtesy of forecast.io.

METAR (pilot weather report)

Closest report is Ísafjörður Airport, 41.2 nm (76.3 km) WNW. Retrieved 2019/04/23 10:00 UTC (5 minutes ago):

BIIS 231000Z 03010KT 9999 SCT025 SCT045 04/M02 Q1002

TAF (pilot weather forecast)

Closest forecast is Akureyri Airport, 89.6 nm (166.0 km) E. Retrieved 2019/04/23 09:01 UTC (1 hour ago):

TAF BIAR 230759Z 2309/2409 34008KT 8000 -SNRA SCT025 BKN030 OVC043 TX08/2409Z TN02/2309Z BECMG 2311/2313 9000 -RADZ BKN015 OVC025 BECMG 2317/2320 16013KT 9999 NSW SCT030 BKN050